Time;durP1;ratioP1;P1;durP2;ratioP2;P2;SDS_P1;SDS_P2;PMS_P1;PMS_P2;Temp;Humidity;BMP_temperature;BMP_pressure;BME280_temperature;BME280_humidity;BME280_pressure;Samples;Min_cycle;Max_cycle;Signal;HPM_P1;HPM_P2
2023/03/13 00:00:05;;;;;;;3.17;2.23;;;;;;;;;;5070441;28;20441;-70
2023/03/13 00:02:32;;;;;;;3.27;1.60;;;;;;;;;;5070693;28;20763;-69
2023/03/13 00:04:59;;;;;;;4.03;2.07;;;;;;;;;;5070524;28;20465;-70
2023/03/13 00:07:26;;;;;;;1.70;1.40;;;;;;;;;;5071249;28;20462;-69
2023/03/13 00:09:53;;;;;;;8.30;2.27;;;;;;;;;;5070211;28;20441;-70
2023/03/13 00:12:22;;;;;;;2.50;1.67;;;;;;;;;;5070207;28;20473;-69
2023/03/13 00:14:49;;;;;;;3.43;2.53;;;;;;;;;;5069688;28;20460;-71
2023/03/13 00:17:16;;;;;;;3.50;2.03;;;;;;;;;;5070747;28;20461;-69
2023/03/13 00:19:43;;;;;;;2.43;1.30;;;;;;;;;;5071177;28;20430;-69
2023/03/13 00:22:10;;;;;;;5.53;1.37;;;;;;;;;;5070079;28;20441;-69
2023/03/13 00:24:38;;;;;;;7.53;2.70;;;;;;;;;;5070647;28;20456;-70
2023/03/13 00:27:05;;;;;;;4.77;1.60;;;;;;;;;;5070296;28;20452;-69
2023/03/13 00:29:34;;;;;;;2.20;2.00;;;;;;;;;;5070310;28;20503;-69
2023/03/13 00:32:02;;;;;;;5.33;2.30;;;;;;;;;;5069429;28;20876;-70
2023/03/13 00:34:29;;;;;;;2.40;2.10;;;;;;;;;;5070308;28;20929;-69
2023/03/13 00:36:56;;;;;;;3.97;2.27;;;;;;;;;;5069897;28;20946;-70
2023/03/13 00:39:23;;;;;;;7.60;1.77;;;;;;;;;;5070377;28;20438;-70
2023/03/13 00:41:50;;;;;;;10.20;2.00;;;;;;;;;;5069909;28;20528;-70
2023/03/13 00:44:17;;;;;;;2.30;1.33;;;;;;;;;;5070506;28;20446;-70
2023/03/13 00:46:46;;;;;;;2.63;1.27;;;;;;;;;;5070985;28;20478;-69
2023/03/13 00:49:13;;;;;;;2.63;1.27;;;;;;;;;;5070111;28;20438;-70
2023/03/13 00:51:40;;;;;;;6.90;2.40;;;;;;;;;;5070128;28;20804;-69
2023/03/13 00:54:07;;;;;;;5.43;2.30;;;;;;;;;;5070066;28;20441;-69
2023/03/13 00:56:34;;;;;;;6.60;1.93;;;;;;;;;;5070659;28;20451;-70
2023/03/13 00:59:01;;;;;;;2.73;2.27;;;;;;;;;;5071098;28;20516;-69
2023/03/13 01:01:30;;;;;;;7.37;3.50;;;;;;;;;;5074461;28;20447;-69
2023/03/13 01:03:59;;;;;;;2.27;1.67;;;;;;;;;;5075779;28;20442;-69
2023/03/13 01:06:27;;;;;;;3.00;2.20;;;;;;;;;;5078275;28;20917;-70
2023/03/13 01:08:55;;;;;;;6.23;2.57;;;;;;;;;;5076105;28;20948;-68
2023/03/13 01:11:22;;;;;;;4.07;1.70;;;;;;;;;;5075890;28;20473;-70
2023/03/13 01:13:50;;;;;;;4.63;1.90;;;;;;;;;;5073096;28;20940;-70
2023/03/13 01:16:18;;;;;;;2.17;1.50;;;;;;;;;;5074091;28;20433;-69
2023/03/13 01:18:46;;;;;;;8.07;2.60;;;;;;;;;;5074039;28;20924;-69
2023/03/13 01:21:15;;;;;;;7.27;2.60;;;;;;;;;;5073422;28;20904;-70
2023/03/13 01:23:42;;;;;;;2.77;1.33;;;;;;;;;;5073130;28;20458;-69
2023/03/13 01:26:09;;;;;;;3.90;1.80;;;;;;;;;;5072896;28;20441;-70
2023/03/13 01:28:37;;;;;;;5.50;2.03;;;;;;;;;;5073997;28;20456;-70
2023/03/13 01:31:11;;;;;;;5.93;2.17;;;;;;;;;;5072971;28;20477;-70
2023/03/13 01:33:38;;;;;;;3.57;2.50;;;;;;;;;;5073468;28;20447;-69
2023/03/13 01:36:05;;;;;;;4.23;2.83;;;;;;;;;;5072995;28;20459;-70
2023/03/13 01:38:34;;;;;;;2.50;1.77;;;;;;;;;;5073487;28;20433;-69
2023/03/13 01:41:01;;;;;;;9.87;2.70;;;;;;;;;;5072377;28;20936;-70
2023/03/13 01:43:29;;;;;;;1.90;1.50;;;;;;;;;;5073058;28;20449;-69
2023/03/13 01:46:02;;;;;;;5.00;1.63;;;;;;;;;;5072038;28;20481;-69
2023/03/13 01:48:33;;;;;;;3.40;1.33;;;;;;;;;;5073326;28;20442;-69
2023/03/13 01:51:01;;;;;;;5.70;2.07;;;;;;;;;;5072627;28;20472;-70
2023/03/13 01:53:29;;;;;;;5.50;2.40;;;;;;;;;;5072736;28;20452;-68
2023/03/13 01:55:58;;;;;;;7.70;2.10;;;;;;;;;;5072084;28;20461;-69
2023/03/13 01:58:26;;;;;;;3.10;1.17;;;;;;;;;;5073167;28;20449;-69
2023/03/13 02:00:53;;;;;;;2.90;1.67;;;;;;;;;;5072336;28;20448;-69
2023/03/13 02:03:21;;;;;;;2.80;1.60;;;;;;;;;;5072411;28;20437;-70
2023/03/13 02:05:49;;;;;;;5.33;1.47;;;;;;;;;;5072689;28;20445;-70
2023/03/13 02:08:18;;;;;;;3.50;1.90;;;;;;;;;;5073131;28;20442;-70
2023/03/13 02:10:50;;;;;;;5.40;2.80;;;;;;;;;;5072025;28;20511;-69
2023/03/13 02:13:20;;;;;;;4.00;1.53;;;;;;;;;;5072365;28;20964;-69
2023/03/13 02:15:48;;;;;;;2.00;1.23;;;;;;;;;;5072938;28;20453;-70
2023/03/13 02:18:15;;;;;;;6.73;2.00;;;;;;;;;;5073061;28;20441;-70
2023/03/13 02:20:43;;;;;;;8.47;1.83;;;;;;;;;;5072681;28;20449;-69
2023/03/13 02:23:14;;;;;;;1.70;1.60;;;;;;;;;;5068149;28;20939;-69
2023/03/13 02:25:44;;;;;;;2.00;1.43;;;;;;;;;;5072134;28;20947;-70
2023/03/13 02:28:12;;;;;;;4.90;1.40;;;;;;;;;;5072238;28;20520;-69
2023/03/13 02:30:40;;;;;;;3.00;1.17;;;;;;;;;;5072426;28;20452;-69
2023/03/13 02:33:07;;;;;;;2.17;1.40;;;;;;;;;;5071244;28;20868;-69
2023/03/13 02:35:35;;;;;;;1.03;0.90;;;;;;;;;;5071989;28;20442;-70
2023/03/13 02:38:04;;;;;;;1.40;1.20;;;;;;;;;;5071219;28;20446;-70
2023/03/13 02:40:32;;;;;;;3.30;1.37;;;;;;;;;;5071908;28;20437;-69
2023/03/13 02:43:01;;;;;;;4.50;1.77;;;;;;;;;;5071080;28;20448;-69
2023/03/13 02:45:28;;;;;;;3.80;2.07;;;;;;;;;;5071598;28;20461;-69
2023/03/13 02:47:55;;;;;;;3.93;1.77;;;;;;;;;;5071418;28;20456;-70
2023/03/13 02:50:24;;;;;;;5.17;1.50;;;;;;;;;;5072088;28;20438;-70
2023/03/13 02:52:54;;;;;;;4.33;1.40;;;;;;;;;;5066125;28;20778;-70
2023/03/13 02:55:24;;;;;;;3.20;1.53;;;;;;;;;;5071917;28;20444;-70
2023/03/13 02:57:51;;;;;;;1.87;1.10;;;;;;;;;;5071648;28;20448;-69
2023/03/13 03:00:25;;;;;;;1.10;0.87;;;;;;;;;;5071949;28;20452;-70
2023/03/13 03:02:52;;;;;;;3.47;1.10;;;;;;;;;;5070989;28;20769;-70
2023/03/13 03:05:20;;;;;;;2.13;1.83;;;;;;;;;;5071653;28;20445;-70
2023/03/13 03:07:48;;;;;;;5.60;1.70;;;;;;;;;;5071865;28;20524;-70
2023/03/13 03:10:15;;;;;;;1.70;1.07;;;;;;;;;;5071697;28;20445;-70
2023/03/13 03:12:43;;;;;;;4.30;1.60;;;;;;;;;;5071430;28;20484;-70
2023/03/13 03:15:11;;;;;;;1.97;1.27;;;;;;;;;;5071169;28;20453;-70
2023/03/13 03:17:39;;;;;;;2.60;1.47;;;;;;;;;;5071549;28;20452;-70
2023/03/13 03:20:10;;;;;;;3.93;2.03;;;;;;;;;;5071308;28;20445;-70
2023/03/13 03:22:39;;;;;;;2.40;1.23;;;;;;;;;;5071307;28;20449;-70
2023/03/13 03:25:07;;;;;;;2.63;1.47;;;;;;;;;;5070885;28;20802;-70
2023/03/13 03:27:35;;;;;;;6.47;2.17;;;;;;;;;;5070967;28;20460;-70
2023/03/13 03:30:02;;;;;;;2.47;1.50;;;;;;;;;;5070824;28;20495;-70
2023/03/13 03:32:29;;;;;;;2.97;0.83;;;;;;;;;;5071785;28;20481;-70
2023/03/13 03:34:57;;;;;;;1.33;1.07;;;;;;;;;;5075924;28;20448;-69
2023/03/13 03:37:25;;;;;;;7.90;1.20;;;;;;;;;;5078523;28;20437;-69
2023/03/13 03:39:52;;;;;;;1.67;1.30;;;;;;;;;;5077789;28;20469;-69
2023/03/13 03:42:19;;;;;;;2.23;0.97;;;;;;;;;;5075485;28;20482;-70
2023/03/13 03:44:46;;;;;;;2.63;1.20;;;;;;;;;;5071180;28;20455;-69
2023/03/13 03:47:13;;;;;;;1.87;1.43;;;;;;;;;;5070083;28;20472;-70
2023/03/13 03:49:40;;;;;;;1.10;0.93;;;;;;;;;;5070951;28;20446;-70
2023/03/13 03:52:09;;;;;;;3.73;1.07;;;;;;;;;;5069551;28;21111;-70
2023/03/13 03:54:36;;;;;;;2.40;0.97;;;;;;;;;;5070871;28;20456;-70
2023/03/13 03:57:03;;;;;;;3.63;3.40;;;;;;;;;;5069833;28;20446;-70
2023/03/13 03:59:30;;;;;;;2.70;1.33;;;;;;;;;;5070601;28;20598;-70
2023/03/13 04:01:57;;;;;;;1.47;1.07;;;;;;;;;;5062586;28;20449;-70
2023/03/13 04:04:24;;;;;;;2.30;1.17;;;;;;;;;;5071048;28;20528;-70
2023/03/13 04:06:51;;;;;;;1.50;1.00;;;;;;;;;;5070324;28;20438;-70
2023/03/13 04:09:20;;;;;;;3.67;1.37;;;;;;;;;;5071215;28;20777;-69
2023/03/13 04:11:47;;;;;;;1.13;0.90;;;;;;;;;;5070502;28;20548;-69
2023/03/13 04:14:14;;;;;;;5.10;1.13;;;;;;;;;;5071165;28;20445;-70
2023/03/13 04:16:41;;;;;;;1.53;0.83;;;;;;;;;;5070686;28;20517;-69
2023/03/13 04:19:08;;;;;;;1.47;0.80;;;;;;;;;;5070229;28;20722;-69
2023/03/13 04:21:35;;;;;;;0.90;0.60;;;;;;;;;;5070434;28;20468;-69
2023/03/13 04:24:03;;;;;;;1.07;0.60;;;;;;;;;;5070486;28;20444;-69
2023/03/13 04:26:31;;;;;;;0.70;0.57;;;;;;;;;;5070900;28;20468;-70
2023/03/13 04:28:58;;;;;;;1.37;0.50;;;;;;;;;;5070062;28;20449;-70
2023/03/13 04:31:25;;;;;;;1.57;0.50;;;;;;;;;;5070195;28;20788;-70
2023/03/13 04:33:52;;;;;;;0.70;0.50;;;;;;;;;;5071405;28;20443;-70
2023/03/13 04:36:19;;;;;;;0.70;0.50;;;;;;;;;;5074810;28;20441;-70
2023/03/13 04:38:47;;;;;;;2.57;0.90;;;;;;;;;;5075062;28;20463;-70
2023/03/13 04:41:14;;;;;;;1.30;0.50;;;;;;;;;;5074444;28;20524;-70
2023/03/13 04:43:42;;;;;;;0.60;0.40;;;;;;;;;;5074742;28;20449;-70
2023/03/13 04:46:10;;;;;;;1.70;0.60;;;;;;;;;;5073433;28;20473;-69
2023/03/13 04:48:37;;;;;;;0.70;0.50;;;;;;;;;;5074410;28;20446;-69
2023/03/13 04:51:04;;;;;;;0.90;0.53;;;;;;;;;;5061004;28;20500;-69
2023/03/13 04:53:31;;;;;;;0.83;0.60;;;;;;;;;;5074145;28;20503;-70
2023/03/13 04:55:58;;;;;;;1.10;0.60;;;;;;;;;;5074068;28;20438;-70
2023/03/13 04:58:25;;;;;;;1.87;0.80;;;;;;;;;;5074271;28;20790;-69
2023/03/13 05:00:55;;;;;;;1.43;0.70;;;;;;;;;;5073805;28;20434;-70
2023/03/13 05:03:22;;;;;;;0.70;0.50;;;;;;;;;;5073123;28;20472;-69
2023/03/13 05:05:50;;;;;;;0.70;0.50;;;;;;;;;;5073442;28;20437;-70
2023/03/13 05:08:17;;;;;;;2.63;1.67;;;;;;;;;;5073443;28;20452;-69
2023/03/13 05:10:44;;;;;;;1.30;0.50;;;;;;;;;;5073468;28;20949;-69
2023/03/13 05:13:11;;;;;;;0.70;0.60;;;;;;;;;;5073083;28;20465;-69
2023/03/13 05:15:38;;;;;;;1.10;0.60;;;;;;;;;;5073643;28;20449;-70
2023/03/13 05:18:07;;;;;;;0.83;0.53;;;;;;;;;;5072615;28;20959;-69
2023/03/13 05:20:34;;;;;;;1.53;0.50;;;;;;;;;;5073698;28;20433;-69
2023/03/13 05:23:01;;;;;;;1.83;0.70;;;;;;;;;;5073027;28;20793;-69
2023/03/13 05:25:28;;;;;;;0.93;0.70;;;;;;;;;;5073946;28;20496;-69
2023/03/13 05:27:55;;;;;;;0.70;0.50;;;;;;;;;;5072814;28;20434;-70
2023/03/13 05:30:22;;;;;;;1.77;0.70;;;;;;;;;;5074074;28;20442;-70
2023/03/13 05:32:49;;;;;;;1.37;0.70;;;;;;;;;;5072792;28;20489;-70
2023/03/13 05:35:18;;;;;;;1.17;0.87;;;;;;;;;;5073639;28;20802;-70
2023/03/13 05:37:46;;;;;;;1.20;0.63;;;;;;;;;;5073880;28;20445;-70
2023/03/13 05:40:13;;;;;;;0.80;0.60;;;;;;;;;;5073346;28;20512;-70
2023/03/13 05:42:40;;;;;;;0.80;0.80;;;;;;;;;;5072944;28;20447;-70
2023/03/13 05:45:08;;;;;;;6.30;0.80;;;;;;;;;;5071787;28;20476;-70
2023/03/13 05:47:37;;;;;;;0.77;0.50;;;;;;;;;;5073098;28;21040;-69
2023/03/13 05:50:04;;;;;;;1.20;0.87;;;;;;;;;;5072775;28;20473;-70
2023/03/13 05:52:33;;;;;;;2.23;0.70;;;;;;;;;;5072554;28;20496;-70
2023/03/13 05:55:00;;;;;;;1.87;0.60;;;;;;;;;;5072601;28;20441;-69
2023/03/13 05:57:27;;;;;;;0.93;0.60;;;;;;;;;;5073446;28;20792;-70
2023/03/13 05:59:54;;;;;;;1.10;0.60;;;;;;;;;;5072761;28;20441;-70
2023/03/13 06:02:22;;;;;;;0.60;0.40;;;;;;;;;;5072673;28;20440;-70
2023/03/13 06:04:49;;;;;;;0.63;0.43;;;;;;;;;;5073060;28;20441;-73
2023/03/13 06:07:16;;;;;;;0.70;0.60;;;;;;;;;;5073206;28;20936;-70
2023/03/13 06:09:44;;;;;;;0.80;0.50;;;;;;;;;;5072835;28;20440;-70
2023/03/13 06:12:12;;;;;;;0.60;0.50;;;;;;;;;;5072220;28;20782;-70
2023/03/13 06:14:39;;;;;;;1.43;0.63;;;;;;;;;;5072494;28;20449;-70
2023/03/13 06:17:07;;;;;;;0.60;0.47;;;;;;;;;;5072821;28;20508;-70
2023/03/13 06:19:34;;;;;;;1.20;0.60;;;;;;;;;;5073194;28;20437;-70
2023/03/13 06:22:01;;;;;;;2.70;0.50;;;;;;;;;;5072048;28;20441;-70
2023/03/13 06:24:28;;;;;;;0.60;0.50;;;;;;;;;;5072976;28;20437;-70
2023/03/13 06:26:56;;;;;;;0.80;0.60;;;;;;;;;;5072595;28;20437;-70
2023/03/13 06:29:23;;;;;;;0.73;0.50;;;;;;;;;;5072293;28;20884;-70
2023/03/13 06:31:51;;;;;;;0.83;0.57;;;;;;;;;;5071955;28;20441;-72
2023/03/13 06:34:18;;;;;;;1.17;0.90;;;;;;;;;;5072999;28;20828;-72
2023/03/13 06:36:45;;;;;;;0.90;0.60;;;;;;;;;;5073116;28;20806;-69
2023/03/13 06:39:13;;;;;;;0.70;0.50;;;;;;;;;;5084102;28;20436;-70
2023/03/13 06:41:40;;;;;;;3.27;0.70;;;;;;;;;;5071770;28;20434;-70
2023/03/13 06:44:08;;;;;;;0.60;0.50;;;;;;;;;;5071961;28;20913;-73
2023/03/13 06:46:35;;;;;;;0.70;0.47;;;;;;;;;;5072149;28;20461;-74
2023/03/13 06:49:04;;;;;;;0.60;0.53;;;;;;;;;;5071800;28;20441;-77
2023/03/13 06:51:31;;;;;;;1.20;0.90;;;;;;;;;;5071866;28;20530;-77
2023/03/13 06:53:59;;;;;;;0.83;0.60;;;;;;;;;;5071997;28;20571;-81
2023/03/13 06:56:26;;;;;;;0.70;0.50;;;;;;;;;;5064043;28;20470;-77
2023/03/13 06:58:53;;;;;;;0.63;0.40;;;;;;;;;;5067775;28;20438;-78
2023/03/13 07:01:21;;;;;;;1.00;0.60;;;;;;;;;;5060469;28;20803;-77
2023/03/13 07:03:49;;;;;;;1.10;0.50;;;;;;;;;;5069765;28;20917;-70
2023/03/13 07:06:17;;;;;;;1.43;0.50;;;;;;;;;;5072209;28;20836;-72
2023/03/13 07:08:44;;;;;;;0.93;0.50;;;;;;;;;;5072454;28;20444;-74
2023/03/13 07:11:12;;;;;;;1.30;0.80;;;;;;;;;;5070715;28;20461;-75
2023/03/13 07:13:39;;;;;;;0.80;0.60;;;;;;;;;;5070111;28;20883;-74
2023/03/13 07:16:07;;;;;;;1.00;0.50;;;;;;;;;;5070004;28;20454;-74
2023/03/13 07:18:37;;;;;;;1.00;0.50;;;;;;;;;;5070549;28;20452;-74
2023/03/13 07:21:05;;;;;;;0.70;0.57;;;;;;;;;;5069960;28;20437;-75
2023/03/13 07:23:32;;;;;;;1.00;0.60;;;;;;;;;;5071189;28;20453;-75
2023/03/13 07:26:01;;;;;;;1.47;0.50;;;;;;;;;;5070187;28;20446;-74
2023/03/13 07:28:30;;;;;;;0.70;0.50;;;;;;;;;;5070741;28;20453;-75
2023/03/13 07:31:04;;;;;;;0.90;0.60;;;;;;;;;;5070450;28;20437;-74
2023/03/13 07:33:31;;;;;;;0.90;0.73;;;;;;;;;;5069721;28;20807;-75
2023/03/13 07:35:59;;;;;;;1.10;0.73;;;;;;;;;;5069851;28;20444;-74
2023/03/13 07:38:26;;;;;;;0.97;0.50;;;;;;;;;;5071472;28;20525;-74
2023/03/13 07:40:54;;;;;;;1.87;0.70;;;;;;;;;;5070457;28;20449;-75
2023/03/13 07:43:21;;;;;;;1.57;1.20;;;;;;;;;;5070616;28;20932;-75
2023/03/13 07:45:52;;;;;;;0.67;0.53;;;;;;;;;;5069847;28;20469;-71
2023/03/13 07:48:19;;;;;;;0.70;0.50;;;;;;;;;;5061626;28;20483;-74
2023/03/13 07:50:46;;;;;;;0.70;0.50;;;;;;;;;;5071372;28;20483;-74
2023/03/13 07:53:19;;;;;;;0.80;0.60;;;;;;;;;;5071172;28;20526;-76
2023/03/13 07:55:52;;;;;;;1.10;0.70;;;;;;;;;;5070342;28;20452;-72
2023/03/13 07:58:19;;;;;;;1.00;0.60;;;2.30;1.00;;;;;;5067234;28;20429;-72
2023/03/13 08:00:46;;;;;;;0.70;0.50;;;13.30;1.00;;;;;;5069300;28;20790;-72
2023/03/13 08:03:13;;;;;;;0.80;0.50;;;13.30;99.90;;;;;;5069250;28;20452;-72
2023/03/13 08:05:40;;;;;;;0.90;0.50;;;13.40;99.90;;;;;;5069878;28;20491;-73
2023/03/13 08:08:06;;;;;;;0.73;0.50;;;13.40;99.90;;;;;;5069287;28;20453;-72
2023/03/13 08:10:35;;;;;;;0.60;0.40;;;13.50;1.00;;;;;;5070767;28;20434;-74
2023/03/13 08:13:02;;;;;;;1.67;0.90;;;13.60;1.00;;;;;;5069809;28;20473;-73
2023/03/13 08:15:29;;;;;;;0.70;0.50;;;13.50;1.00;;;;;;5071126;28;20452;-75
2023/03/13 08:17:57;;;;;;;0.70;0.60;;;13.60;1.00;;;;;;5070253;28;20456;-70
2023/03/13 08:20:24;;;;;;;0.80;0.50;;;;;;;;;;5070759;28;20437;-70
2023/03/13 08:22:51;;;;;;;0.80;0.50;;;;;;;;;;5069822;28;20499;-69
2023/03/13 08:25:18;;;;;;;0.70;0.50;;;;;;;;;;5071096;28;20437;-69
2023/03/13 08:27:47;;;;;;;1.70;0.70;;;;;;;;;;5070747;28;20469;-76
2023/03/13 08:30:14;;;;;;;0.80;0.60;;;;;;;;;;5070900;28;20448;-74
2023/03/13 08:32:41;;;;;;;1.57;0.60;;;;;;;;;;5069805;28;20448;-74
2023/03/13 08:35:09;;;;;;;0.77;0.53;;;;;;;;;;5070477;28;20452;-74
2023/03/13 08:37:36;;;;;;;1.13;0.73;;;;;;;;;;5070699;28;20449;-74
2023/03/13 08:40:08;;;;;;;0.60;0.50;;;;;;;;;;5070259;28;20438;-74
2023/03/13 08:42:36;;;;;;;1.73;0.90;;;13.70;99.90;;;;;;5070497;28;20446;-74
2023/03/13 08:45:05;;;;;;;0.80;0.70;;;14.10;1.00;;;;;;5069932;28;20457;-75
2023/03/13 08:47:32;;;;;;;2.53;0.70;;;14.10;1.00;;;;;;5070784;28;20430;-71
2023/03/13 08:49:59;;;;;;;2.30;0.80;;;;;;;;;;5069919;28;20437;-73
2023/03/13 08:52:26;;;;;;;1.57;0.87;;;;;;;;;;5069926;28;20520;-71
2023/03/13 08:54:53;;;;;;;0.70;0.60;;;14.20;1.00;;;;;;5070008;28;20531;-70
2023/03/13 08:57:20;;;;;;;1.43;0.50;;;14.30;99.90;;;;;;5070251;28;20442;-71
2023/03/13 08:59:48;;;;;;;0.93;0.57;;;;;;;;;;5071014;28;20449;-74
2023/03/13 09:02:19;;;;;;;0.80;0.60;;;;;;;;;;5071278;28;20475;-78
2023/03/13 09:04:47;;;;;;;0.90;0.60;;;;;;;;;;5085945;28;20433;-77
2023/03/13 09:07:15;;;;;;;1.87;0.83;;;14.40;99.90;;;;;;5087368;28;20449;-77
2023/03/13 09:09:42;;;;;;;0.83;0.60;;;;;;;;;;5085612;28;20468;-73
2023/03/13 09:12:10;;;;;;;2.30;1.00;;;;;;;;;;5082039;28;20524;-73
2023/03/13 09:14:37;;;;;;;0.70;0.50;;;;;;;;;;5081620;28;20583;-70
2023/03/13 09:17:04;;;;;;;1.13;0.60;;;;;;;;;;5074144;28;20449;-76
2023/03/13 09:19:33;;;;;;;1.00;0.60;;;;;;;;;;5071204;28;20503;-75
2023/03/13 09:22:00;;;;;;;0.97;0.70;;;;;;;;;;5073480;28;20441;-73
2023/03/13 09:24:27;;;;;;;0.90;0.90;;;;;;;;;;5072243;28;20459;-82
2023/03/13 09:26:54;;;;;;;1.50;0.80;;;;;;;;;;5073075;28;20437;-80
2023/03/13 09:29:21;;;;;;;2.30;0.70;;;;;;;;;;5073956;28;20745;-77
2023/03/13 09:31:49;;;;;;;1.60;0.90;;;;;;;;;;5073541;28;20448;-71
2023/03/13 09:34:16;;;;;;;0.93;0.70;;;;;;;;;;5073117;28;20472;-77
2023/03/13 09:36:44;;;;;;;1.50;1.40;;;;;;;;;;5073555;28;20456;-74
2023/03/13 09:39:11;;;;;;;1.27;0.80;;;;;;;;;;5070718;28;20452;-74
2023/03/13 09:41:40;;;;;;;0.93;0.73;;;;;;;;;;5073800;28;20445;-75
2023/03/13 09:44:11;;;;;;;0.90;0.70;;;;;;;;;;5072259;28;20475;-75
2023/03/13 09:46:40;;;;;;;1.60;0.80;;;;;;;;;;5073587;28;21019;-74
2023/03/13 09:49:14;;;;;;;1.13;0.80;;;14.50;99.90;;;;;;5073587;28;20442;-75
2023/03/13 09:51:42;;;;;;;1.93;0.83;;;;;;;;;;5064499;28;20442;-75
2023/03/13 09:54:14;;;;;;;2.17;1.00;;;;;;;;;;5072101;28;20477;-75
2023/03/13 09:56:44;;;;;;;2.70;1.17;;;;;;;;;;5073548;28;20430;-77
2023/03/13 09:59:15;;;;;;;2.90;0.70;;;;;;;;;;5072741;28;20444;-78
2023/03/13 10:01:44;;;;;;;0.70;0.60;;;;;;;;;;5073338;28;20418;-76
2023/03/13 10:04:22;;;;;;;0.83;0.70;;;;;;;;;;5072440;28;20445;-77
2023/03/13 10:06:50;;;;;;;0.87;0.63;;;;;;;;;;5072749;28;20452;-73
2023/03/13 10:09:20;;;;;;;0.70;0.60;;;;;;;;;;5073357;28;20522;-75
2023/03/13 10:11:51;;;;;;;1.00;0.70;;;;;;;;;;5073046;28;20448;-74
2023/03/13 10:14:21;;;;;;;1.00;0.90;;;;;;;;;;5072757;28;20495;-73
2023/03/13 10:16:50;;;;;;;1.40;1.00;;;;;;;;;;5073063;28;20784;-74
2023/03/13 10:19:18;;;;;;;1.33;0.70;;;;;;;;;;5072707;28;20445;-74
2023/03/13 10:21:48;;;;;;;1.43;0.90;;;;;;;;;;5072809;28;20925;-74
2023/03/13 10:24:19;;;;;;;2.30;1.23;;;;;;;;;;5072448;28;20448;-74
2023/03/13 10:26:47;;;;;;;1.33;1.10;;;;;;;;;;5072978;28;20791;-73
2023/03/13 10:29:20;;;;;;;1.77;0.77;;;;;;;;;;5072661;28;20482;-73
2023/03/13 10:31:51;;;;;;;0.90;0.70;;;;;;;;;;5072375;28;20528;-73
2023/03/13 10:34:18;;;;;;;3.37;1.33;;;;;;;;;;5072248;28;20476;-73
2023/03/13 10:36:46;;;;;;;1.20;0.80;;;;;;;;;;5072375;28;20937;-73
2023/03/13 10:39:15;;;;;;;1.83;0.93;;;;;;;;;;5070486;28;20455;-73
2023/03/13 10:41:43;;;;;;;2.93;0.90;;;;;;;;;;5072108;28;20463;-73
2023/03/13 10:44:17;;;;;;;1.07;0.73;;;;;;;;;;5069859;28;20453;-73
2023/03/13 10:46:45;;;;;;;1.07;0.80;;;;;;;;;;5069518;28;20480;-73
2023/03/13 10:49:15;;;;;;;1.13;1.03;;;;;;;;;;5068407;28;20452;-73
2023/03/13 10:51:48;;;;;;;3.40;1.20;;;;;;;;;;5069492;28;20449;-73
2023/03/13 10:54:16;;;;;;;1.30;1.00;;;;;;;;;;5069657;28;20473;-72
2023/03/13 10:56:43;;;;;;;1.27;0.83;;;;;;;;;;5068388;28;20446;-72
2023/03/13 10:59:23;;;;;;;4.10;1.10;;;;;;;;;;5068160;28;20789;-72
2023/03/13 11:01:50;;;;;;;1.77;1.23;;;;;;;;;;5068318;28;20952;-72
2023/03/13 11:04:27;;;;;;;2.00;1.10;;;;;;;;;;5069192;28;21025;-72
2023/03/13 11:06:59;;;;;;;1.47;0.97;;;;;;;;;;5069066;28;20452;-73
2023/03/13 11:09:26;;;;;;;1.87;1.10;;;;;;;;;;5068787;28;20525;-73
2023/03/13 11:11:54;;;;;;;1.47;0.83;;;;;;;;;;5068739;28;20457;-73
2023/03/13 11:14:23;;;;;;;0.90;0.80;;;;;;;;;;5067152;28;20824;-72
2023/03/13 11:16:51;;;;;;;1.77;0.80;;;;;;;;;;5067912;28;20445;-73
2023/03/13 11:19:30;;;;;;;1.10;0.90;;;;;;;;;;5069102;28;20456;-73
2023/03/13 11:22:08;;;;;;;1.27;0.87;;;;;;;;;;5065557;28;20437;-72
2023/03/13 11:24:40;;;;;;;1.00;0.70;;;;;;;;;;5069349;28;20517;-73
2023/03/13 11:27:14;;;;;;;1.17;1.07;;;;;;;;;;5068883;28;20444;-73
2023/03/13 11:29:49;;;;;;;1.73;1.10;;;;;;;;;;5067536;28;20457;-73
2023/03/13 11:32:21;;;;;;;0.90;0.70;;;;;;;;;;5068925;28;20761;-73
2023/03/13 11:34:51;;;;;;;1.30;0.80;;;;;;;;;;5068993;28;20469;-73
2023/03/13 11:37:19;;;;;;;2.03;1.00;;;;;;;;;;5068060;28;20499;-72
2023/03/13 11:39:54;;;;;;;1.60;1.10;;;;;;;;;;5069328;28;20453;-72
2023/03/13 11:42:34;;;;;;;1.37;1.27;;;;;;;;;;5068139;28;20552;-73
2023/03/13 11:45:07;;;;;;;3.33;1.27;;;;;;;;;;5067826;28;20473;-72
2023/03/13 11:47:42;;;;;;;2.73;1.00;;;;;;;;;;5068922;28;20441;-72
2023/03/13 11:50:15;;;;;;;1.40;0.80;;;;;;;;;;5062968;28;20437;-72
2023/03/13 11:52:49;;;;;;;1.10;0.83;;;;;;;;;;5067366;28;20434;-72
2023/03/13 11:55:28;;;;;;;1.83;1.20;;;;;;;;;;5068971;28;20476;-72
2023/03/13 11:57:59;;;;;;;1.30;0.83;;;;;;;;;;5068179;28;20444;-72
2023/03/13 12:00:34;;;;;;;1.30;0.73;;;;;;;;;;5068684;28;20963;-73
2023/03/13 12:03:05;;;;;;;0.87;0.70;;;;;;;;;;5067542;28;20913;-73
2023/03/13 12:05:37;;;;;;;0.80;0.70;;;;;;;;;;5068227;28;20434;-73
2023/03/13 12:08:08;;;;;;;1.67;0.80;;;;;;;;;;5067708;28;20437;-73
2023/03/13 12:10:38;;;;;;;2.20;0.70;;;;;;;;;;5060779;28;20438;-73
2023/03/13 12:13:07;;;;;;;1.17;0.90;;;;;;;;;;5065358;28;20444;-73
2023/03/13 12:15:38;;;;;;;1.50;1.10;;;;;;;;;;5068874;28;20580;-73
2023/03/13 12:18:10;;;;;;;1.50;0.90;;;;;;;;;;5067553;28;20474;-73
2023/03/13 12:20:41;;;;;;;1.40;0.73;;;;;;;;;;5068356;28;20443;-73
2023/03/13 12:23:18;;;;;;;1.03;0.80;;;;;;;;;;5065681;28;20814;-73
2023/03/13 12:25:46;;;;;;;1.47;0.70;;;;;;;;;;5067714;28;20445;-73
2023/03/13 12:28:22;;;;;;;0.90;0.60;;;;;;;;;;5067628;28;20807;-73
2023/03/13 12:30:53;;;;;;;0.90;0.60;;;;;;;;;;5067897;28;20473;-73
2023/03/13 12:33:23;;;;;;;1.20;0.80;;;;;;;;;;5067335;28;20805;-73
2023/03/13 12:35:53;;;;;;;0.70;0.70;;;;;;;;;;5067191;28;21047;-73
2023/03/13 12:38:23;;;;;;;0.70;0.60;;;;;;;;;;5068034;28;20441;-73
2023/03/13 12:40:51;;;;;;;2.07;1.10;;;;;;;;;;5067425;28;20830;-73
2023/03/13 12:43:20;;;;;;;0.70;0.63;;;;;;;;;;5067603;28;20904;-73
2023/03/13 12:45:55;;;;;;;1.43;0.70;;;;;;;;;;5067322;28;20483;-72
2023/03/13 12:48:36;;;;;;;1.13;1.00;;;;;;;;;;5068128;28;20440;-73
2023/03/13 12:51:18;;;;;;;1.10;0.87;;;;;;;;;;5064152;28;20444;-75
2023/03/13 12:53:50;;;;;;;1.13;0.87;;;;;;;;;;5067803;28;20461;-75
2023/03/13 12:56:32;;;;;;;1.07;0.80;;;;;;;;;;5070448;28;20465;-74
2023/03/13 12:59:03;;;;;;;1.30;1.00;;;;;;;;;;5069232;28;20445;-71
2023/03/13 13:01:33;;;;;;;1.20;0.77;;;;;;;;;;5058946;28;20450;-71
2023/03/13 13:04:02;;;;;;;0.80;0.60;;;;;;;;;;5070794;28;20441;-71
2023/03/13 13:06:31;;;;;;;0.83;0.63;;;;;;;;;;5071742;28;20453;-71
2023/03/13 13:09:09;;;;;;;0.77;0.63;;;;;;;;;;5070578;28;20453;-73
2023/03/13 13:11:46;;;;;;;0.97;0.80;;;;;;;;;;5071128;28;20883;-72
2023/03/13 13:14:32;;;;;;;1.10;0.90;;;;;;;;;;5069598;28;20457;-71
2023/03/13 13:17:02;;;;;;;0.93;0.70;;;;;;;;;;5071820;28;20445;-71
2023/03/13 13:19:47;;;;;;;1.07;0.90;;;;;;;;;;5071449;28;20924;-71
2023/03/13 13:22:35;;;;;;;1.10;0.90;;;;;;;;;;5071084;28;20940;-71
2023/03/13 13:25:02;;;;;;;0.90;0.50;;;;;;;;;;5070902;28;20503;-70
2023/03/13 13:27:46;;;;;;;2.40;0.70;;;;;;;;;;5070110;28;20528;-71
2023/03/13 13:30:28;;;;;;;3.37;2.10;;;;;;;;;;5068574;28;20465;-71
2023/03/13 13:32:57;;;;;;;1.23;0.83;;;;;;;;;;5069085;28;20798;-71
2023/03/13 13:35:34;;;;;;;0.70;0.70;;;;;;;;;;5071548;28;20468;-70
2023/03/13 13:38:19;;;;;;;1.50;0.70;;;;;;;;;;5070770;28;20805;-71
2023/03/13 13:40:58;;;;;;;1.30;0.80;;;;;;;;;;5068233;28;20450;-71
2023/03/13 13:43:25;;;;;;;1.17;0.70;;;;;;;;;;5070386;28;20448;-73
2023/03/13 13:46:00;;;;;;;1.10;0.70;;;;;;;;;;5070288;28;20473;-74
2023/03/13 13:48:31;;;;;;;0.80;0.63;;;;;;;;;;5071080;28;20449;-71
2023/03/13 13:51:31;;;;;;;0.77;0.57;;;;;;;;;;5069955;28;20664;-71
2023/03/13 13:54:00;;;;;;;2.50;0.63;;;;;;;;;;5007331;28;20458;-71
2023/03/13 13:56:31;;;;;;;2.13;0.60;;;;;;;;;;5007491;28;20923;-71
2023/03/13 13:59:00;;;;;;;2.40;0.70;;;;;;;;;;5035994;28;20928;-71
2023/03/13 14:01:27;;;;;;;0.83;0.60;;;;;;;;;;5068366;28;20438;-71
2023/03/13 14:03:59;;;;;;;1.20;0.90;;;;;;;;;;5068350;28;20803;-71
2023/03/13 14:06:29;;;;;;;0.80;0.70;;;;;;;;;;5069597;28;20445;-71
2023/03/13 14:08:58;;;;;;;2.50;0.90;;;;;;;;;;5069651;28;20449;-71
2023/03/13 14:11:27;;;;;;;1.80;0.90;;;;;;;;;;5069594;28;20465;-71
2023/03/13 14:14:09;;;;;;;0.77;0.70;;;;;;;;;;5067021;28;20454;-71
2023/03/13 14:16:38;;;;;;;1.50;0.80;;;;;;;;;;5069398;28;20469;-72
2023/03/13 14:19:06;;;;;;;0.80;0.70;;;;;;;;;;5068994;28;20499;-72
2023/03/13 14:21:33;;;;;;;1.27;1.10;;;;;;;;;;5070427;28;20437;-72
2023/03/13 14:24:00;;;;;;;1.27;0.60;;;;;;;;;;5069109;28;20442;-72
2023/03/13 14:26:29;;;;;;;1.00;0.60;;;;;;;;;;5069680;28;20444;-72
2023/03/13 14:28:57;;;;;;;12.83;1.10;;;;;;;;;;5069859;28;20444;-73
2023/03/13 14:31:25;;;;;;;1.27;0.67;;;;;;;;;;5069834;28;20702;-72
2023/03/13 14:33:53;;;;;;;1.73;0.70;;;;;;;;;;5069105;28;20865;-72
2023/03/13 14:36:22;;;;;;;0.70;0.60;;;;;;;;;;5070223;28;20485;-72
2023/03/13 14:38:53;;;;;;;0.80;0.80;;;;;;;;;;5070513;28;20445;-70
2023/03/13 14:41:24;;;;;;;0.70;0.60;;;;;;;;;;5057345;28;20790;-72
2023/03/13 14:43:51;;;;;;;0.80;0.70;;;;;;;;;;5069063;28;20865;-72
2023/03/13 14:46:24;;;;;;;0.80;0.60;;;;;;;;;;5065245;28;20462;-73
2023/03/13 14:48:54;;;;;;;3.07;0.90;;;;;;;;;;5069125;28;20444;-72